createdAt,value
2017-07-25T00:02:12.448Z,83.26
2017-07-25T00:04:40.149Z,83.37
2017-07-25T00:07:07.845Z,83.47
2017-07-25T00:09:35.480Z,83.36
2017-07-25T00:12:03.139Z,83.31
2017-07-25T00:14:31.078Z,83.54
2017-07-25T00:16:58.717Z,83.32
2017-07-25T00:19:26.349Z,83.55
2017-07-25T00:21:54.022Z,83.66
2017-07-25T00:24:21.741Z,83.50
2017-07-25T00:26:49.395Z,83.41
2017-07-25T00:29:17.036Z,83.63
2017-07-25T00:31:44.710Z,83.83
2017-07-25T00:34:12.313Z,83.68
2017-07-25T00:36:40.062Z,83.66
2017-07-25T00:39:07.680Z,83.96
2017-07-25T00:41:35.659Z,84.14
2017-07-25T00:44:03.303Z,84.36
2017-07-25T00:46:30.953Z,84.17
2017-07-25T00:48:58.574Z,84.14
2017-07-25T00:51:26.230Z,83.97
2017-07-25T00:53:53.866Z,83.77
2017-07-25T00:56:21.662Z,83.67
2017-07-25T00:58:49.283Z,83.66
2017-07-25T01:01:16.963Z,83.59
2017-07-25T01:03:44.592Z,83.70
2017-07-25T01:06:12.232Z,83.63
2017-07-25T01:08:39.862Z,83.39
2017-07-25T01:11:07.632Z,83.41
2017-07-25T01:13:35.264Z,83.20
2017-07-25T01:16:02.953Z,83.13
2017-07-25T01:18:30.641Z,83.16
2017-07-25T01:20:58.347Z,83.04
2017-07-25T01:23:26.059Z,82.97
2017-07-25T01:25:53.701Z,83.04
2017-07-25T01:28:21.369Z,82.85
2017-07-25T01:30:48.986Z,83.00
2017-07-25T01:33:16.651Z,83.33
2017-07-25T01:35:44.272Z,83.31
2017-07-25T01:38:11.938Z,83.02
2017-07-25T01:40:39.553Z,83.15
2017-07-25T01:43:07.187Z,82.91
2017-07-25T01:45:34.845Z,83.06
2017-07-25T01:48:02.515Z,82.85
2017-07-25T01:50:30.166Z,83.14
2017-07-25T01:52:57.849Z,83.20
2017-07-25T01:55:25.482Z,83.03
2017-07-25T01:57:53.122Z,83.10
2017-07-25T02:00:20.757Z,83.48
2017-07-25T02:02:48.404Z,83.70
2017-07-25T02:05:16.075Z,83.80
2017-07-25T02:07:43.868Z,84.14
2017-07-25T02:10:11.936Z,84.34
2017-07-25T02:12:39.849Z,84.33
2017-07-25T02:15:07.572Z,84.48
2017-07-25T02:17:35.218Z,84.66
2017-07-25T02:20:02.858Z,84.58
2017-07-25T02:22:30.514Z,84.51
2017-07-25T02:24:58.163Z,84.55
2017-07-25T02:27:25.813Z,84.71
2017-07-25T02:29:53.841Z,85.01
2017-07-25T02:32:21.850Z,84.98
2017-07-25T02:34:49.495Z,85.08
2017-07-25T02:37:17.155Z,84.76
2017-07-25T02:39:44.773Z,84.60
2017-07-25T02:42:12.430Z,84.51
2017-07-25T02:44:40.063Z,84.55
2017-07-25T02:47:07.713Z,84.66
2017-07-25T02:49:35.327Z,84.76
2017-07-25T02:52:03.279Z,84.87
2017-07-25T02:54:30.940Z,84.81
2017-07-25T02:56:58.585Z,84.93
2017-07-25T02:59:26.247Z,84.85
2017-07-25T03:01:53.857Z,84.97
2017-07-25T03:04:21.495Z,84.76
2017-07-25T03:06:49.141Z,84.98
2017-07-25T03:09:17.126Z,84.80
2017-07-25T03:11:44.860Z,84.65
2017-07-25T03:14:12.497Z,84.91
2017-07-25T03:16:40.173Z,85.05
2017-07-25T03:19:07.840Z,85.19
2017-07-25T03:21:35.465Z,84.94
2017-07-25T03:24:03.180Z,84.94
2017-07-25T03:26:30.809Z,84.92
2017-07-25T03:28:58.467Z,84.88
2017-07-25T03:31:26.093Z,84.95
2017-07-25T03:33:53.730Z,85.07
2017-07-25T03:36:21.379Z,85.22
2017-07-25T03:38:49.036Z,85.65
2017-07-25T03:41:16.679Z,85.90
2017-07-25T03:43:44.727Z,85.88
2017-07-25T03:46:12.375Z,86.21
2017-07-25T03:48:40.030Z,85.81
2017-07-25T03:51:07.668Z,85.66
2017-07-25T03:53:35.468Z,85.92
2017-07-25T03:56:03.075Z,85.88
2017-07-25T03:58:31.230Z,85.86
2017-07-25T04:00:58.924Z,86.15
2017-07-25T04:03:26.571Z,86.24
2017-07-25T04:05:54.251Z,85.59
2017-07-25T04:08:21.936Z,85.88
2017-07-25T04:10:49.577Z,85.68
2017-07-25T04:13:17.236Z,85.69
2017-07-25T04:15:44.871Z,85.63
2017-07-25T04:18:12.548Z,85.71
2017-07-25T04:20:40.176Z,85.70
2017-07-25T04:23:08.124Z,85.82
2017-07-25T04:25:35.764Z,85.87
2017-07-25T04:28:03.369Z,86.20
2017-07-25T04:30:31.934Z,85.86
2017-07-25T04:32:59.548Z,85.78
2017-07-25T04:35:27.225Z,85.66
2017-07-25T04:37:54.964Z,85.64
2017-07-25T04:40:22.945Z,85.71
2017-07-25T04:42:50.592Z,85.51
2017-07-25T04:45:18.238Z,85.64
2017-07-25T04:47:45.873Z,85.73
2017-07-25T04:50:13.584Z,85.51
2017-07-25T04:52:41.198Z,85.33
2017-07-25T04:55:08.874Z,85.30
2017-07-25T04:57:36.521Z,85.46
2017-07-25T05:00:04.715Z,85.28
2017-07-25T05:02:32.357Z,84.71
2017-07-25T05:05:00.015Z,84.83
2017-07-25T05:07:27.605Z,84.57
2017-07-25T05:09:55.256Z,84.57
2017-07-25T05:12:22.907Z,84.79
2017-07-25T05:14:50.554Z,84.44
2017-07-25T05:17:18.177Z,83.96
2017-07-25T05:19:45.825Z,84.24
2017-07-25T05:22:13.470Z,84.00
2017-07-25T05:24:41.160Z,83.65
2017-07-25T05:27:08.797Z,83.85
2017-07-25T05:29:36.453Z,83.95
2017-07-25T05:32:04.096Z,83.76
2017-07-25T05:34:31.729Z,83.51
2017-07-25T05:36:59.443Z,83.57
2017-07-25T05:39:27.095Z,83.98
2017-07-25T05:41:54.769Z,83.44
2017-07-25T05:44:22.457Z,83.10
2017-07-25T05:46:50.083Z,83.40
2017-07-25T05:49:17.731Z,83.08
2017-07-25T05:51:45.433Z,83.37
2017-07-25T05:54:13.094Z,84.08
2017-07-25T05:56:40.754Z,84.65
2017-07-25T05:59:08.441Z,85.11
2017-07-25T06:01:36.105Z,84.78
2017-07-25T06:04:03.749Z,84.88
2017-07-25T06:06:31.479Z,85.06
2017-07-25T06:08:59.121Z,84.51
2017-07-25T06:11:26.881Z,85.28
2017-07-25T06:13:54.534Z,84.91
2017-07-25T06:16:22.222Z,85.01
2017-07-25T06:18:50.010Z,84.60
2017-07-25T06:21:17.693Z,84.45
2017-07-25T06:23:45.348Z,83.94
2017-07-25T06:26:13.116Z,83.92
2017-07-25T06:28:40.758Z,82.26
2017-07-25T06:31:08.422Z,82.89
2017-07-25T06:33:36.059Z,81.22
2017-07-25T06:36:04.420Z,81.60
2017-07-25T06:38:32.080Z,82.04
2017-07-25T06:40:59.775Z,81.03
2017-07-25T06:43:27.452Z,80.52
2017-07-25T06:45:55.127Z,80.27
2017-07-25T06:48:22.768Z,80.04
2017-07-25T06:50:50.447Z,79.56
2017-07-25T06:53:18.078Z,77.60
2017-07-25T06:55:45.735Z,78.95
2017-07-25T06:58:13.423Z,78.04
2017-07-25T07:00:41.063Z,78.73
2017-07-25T07:03:08.693Z,78.35
2017-07-25T07:05:36.370Z,78.33
2017-07-25T07:08:04.010Z,77.05
2017-07-25T07:10:31.672Z,77.72
2017-07-25T07:12:59.322Z,78.26
2017-07-25T07:15:26.971Z,76.77
2017-07-25T07:17:54.609Z,77.76
2017-07-25T07:20:22.245Z,76.90
2017-07-25T07:22:49.968Z,77.29
2017-07-25T07:25:17.590Z,77.13
2017-07-25T07:27:45.248Z,76.95
2017-07-25T07:30:12.986Z,76.51
2017-07-25T07:32:40.731Z,76.65
2017-07-25T07:35:08.367Z,76.55
2017-07-25T07:37:36.027Z,76.24
2017-07-25T07:40:03.649Z,76.66
2017-07-25T07:42:31.313Z,76.24
2017-07-25T07:44:58.921Z,75.51
2017-07-25T07:47:26.593Z,76.30
2017-07-25T07:49:54.220Z,76.06
2017-07-25T07:52:21.883Z,75.32
2017-07-25T07:54:49.521Z,75.57
2017-07-25T07:57:17.171Z,75.77
2017-07-25T07:59:44.823Z,75.63
2017-07-25T08:02:12.545Z,75.79
2017-07-25T08:04:40.227Z,76.22
2017-07-25T08:07:07.871Z,75.66
2017-07-25T08:09:35.495Z,75.72
2017-07-25T08:12:03.144Z,74.40
2017-07-25T08:14:30.769Z,74.52
2017-07-25T08:16:58.419Z,74.14
2017-07-25T08:19:26.039Z,73.87
2017-07-25T08:21:53.671Z,73.99
2017-07-25T08:24:21.333Z,73.91
2017-07-25T08:26:49.011Z,73.61
2017-07-25T08:29:16.646Z,74.39
2017-07-25T08:31:44.403Z,72.44
2017-07-25T08:34:12.041Z,72.29
2017-07-25T08:36:39.689Z,72.81
2017-07-25T08:39:07.343Z,71.74
2017-07-25T08:41:35.024Z,71.27
2017-07-25T08:44:02.677Z,71.41
2017-07-25T08:46:30.349Z,71.57
2017-07-25T08:48:58.066Z,71.71
2017-07-25T08:51:26.014Z,72.97
2017-07-25T08:53:53.625Z,71.75
2017-07-25T08:56:21.247Z,70.42
2017-07-25T08:58:48.922Z,70.33
2017-07-25T09:01:16.645Z,69.85
2017-07-25T09:03:44.451Z,69.00
2017-07-25T09:06:13.218Z,69.41
2017-07-25T09:08:40.971Z,69.61
2017-07-25T09:11:08.639Z,68.22
2017-07-25T09:13:36.393Z,68.25
2017-07-25T09:16:04.025Z,69.03
2017-07-25T09:18:31.689Z,67.42
2017-07-25T09:20:59.332Z,66.52
2017-07-25T09:23:26.983Z,66.54
2017-07-25T09:25:54.576Z,66.40
2017-07-25T09:28:22.203Z,66.69
2017-07-25T09:30:49.876Z,68.07
2017-07-25T09:33:17.531Z,67.56
2017-07-25T09:35:45.253Z,67.32
2017-07-25T09:38:12.903Z,68.67
2017-07-25T09:40:40.541Z,65.71
2017-07-25T09:43:08.195Z,67.02
2017-07-25T09:45:35.848Z,62.96
2017-07-25T09:48:03.494Z,65.70
2017-07-25T09:50:31.123Z,63.77
2017-07-25T09:52:59.647Z,64.36
2017-07-25T09:55:28.083Z,64.80
2017-07-25T09:57:55.745Z,64.52
2017-07-25T10:00:23.400Z,64.19
2017-07-25T10:02:51.125Z,63.87
2017-07-25T10:05:18.776Z,65.20
2017-07-25T10:07:46.410Z,64.81
2017-07-25T10:10:14.084Z,65.21
2017-07-25T10:12:41.729Z,64.54
2017-07-25T10:15:09.368Z,64.12
2017-07-25T10:17:37.021Z,65.57
2017-07-25T10:20:04.719Z,65.95
2017-07-25T10:22:32.362Z,64.67
2017-07-25T10:25:00.032Z,62.68
2017-07-25T10:27:27.658Z,61.83
2017-07-25T10:29:55.302Z,64.27
2017-07-25T10:32:22.946Z,62.89
2017-07-25T10:34:50.603Z,63.13
2017-07-25T10:37:18.296Z,62.94
2017-07-25T10:39:45.962Z,61.75
2017-07-25T10:42:13.575Z,62.62
2017-07-25T10:44:41.234Z,63.78
2017-07-25T10:47:08.911Z,64.23
2017-07-25T10:49:36.643Z,63.06
2017-07-25T10:52:04.327Z,64.06
2017-07-25T10:54:31.995Z,58.89
2017-07-25T10:56:59.608Z,59.26
2017-07-25T10:59:27.273Z,61.14
2017-07-25T11:01:54.933Z,70.40
2017-07-25T11:04:22.602Z,72.15
2017-07-25T11:06:50.246Z,70.98
2017-07-25T11:09:17.893Z,73.65
2017-07-25T11:11:45.845Z,74.36
2017-07-25T11:14:13.539Z,73.51
2017-07-25T11:16:41.171Z,76.39
2017-07-25T11:19:08.835Z,76.23
2017-07-25T11:21:36.487Z,72.01
2017-07-25T11:24:04.139Z,72.48
2017-07-25T11:26:31.791Z,71.66
2017-07-25T11:28:59.432Z,71.03
2017-07-25T11:31:27.093Z,72.22
2017-07-25T11:33:54.783Z,70.70
2017-07-25T11:36:22.433Z,73.40
2017-07-25T11:38:50.117Z,70.77
2017-07-25T11:41:19.687Z,69.00
2017-07-25T11:43:47.384Z,67.31
2017-07-25T11:46:15.116Z,68.82
2017-07-25T11:48:42.757Z,67.17
2017-07-25T11:51:10.537Z,66.72
2017-07-25T11:53:38.173Z,65.97
2017-07-25T11:56:05.822Z,65.80
2017-07-25T11:58:33.572Z,64.92
2017-07-25T12:01:01.271Z,64.06
2017-07-25T12:03:28.941Z,62.59
2017-07-25T12:05:56.727Z,61.88
2017-07-25T12:08:24.366Z,63.45
2017-07-25T12:10:52.037Z,62.29
2017-07-25T12:13:19.674Z,60.88
2017-07-25T12:15:47.362Z,62.38
2017-07-25T12:18:15.011Z,59.81
2017-07-25T12:20:54.644Z,58.71
2017-07-25T12:23:22.249Z,60.12
2017-07-25T12:25:49.910Z,65.68
2017-07-25T12:28:17.609Z,69.22
2017-07-25T12:30:45.289Z,71.00
2017-07-25T12:33:13.064Z,71.30
2017-07-25T12:35:40.804Z,71.57
2017-07-25T12:38:08.439Z,73.64
2017-07-25T12:40:36.751Z,69.68
2017-07-25T12:43:04.380Z,70.92
2017-07-25T12:45:33.491Z,71.73
2017-07-25T12:48:01.132Z,72.01
2017-07-25T12:50:28.804Z,71.01
2017-07-25T12:52:56.850Z,70.68
2017-07-25T12:55:24.539Z,69.10
2017-07-25T12:57:52.163Z,69.92
2017-07-25T13:00:19.926Z,63.68
2017-07-25T13:03:08.452Z,64.46
2017-07-25T13:05:36.119Z,64.10
2017-07-25T13:08:03.752Z,66.25
2017-07-25T13:10:31.398Z,63.90
2017-07-25T13:12:58.980Z,63.54
2017-07-25T13:15:26.694Z,66.37
2017-07-25T13:17:54.321Z,64.86
2017-07-25T13:20:22.008Z,65.04
2017-07-25T13:22:49.627Z,65.20
2017-07-25T13:25:17.414Z,64.62
2017-07-25T13:27:45.023Z,65.10
2017-07-25T13:30:12.828Z,64.58
2017-07-25T13:32:40.470Z,64.55
2017-07-25T13:35:08.618Z,64.58
2017-07-25T13:37:36.237Z,66.81
2017-07-25T13:40:04.041Z,65.22
2017-07-25T13:42:31.653Z,63.24
2017-07-25T13:44:59.311Z,65.06
2017-07-25T13:47:26.983Z,65.22
2017-07-25T13:49:54.684Z,66.63
2017-07-25T13:52:22.392Z,66.32
2017-07-25T13:54:50.083Z,65.96
2017-07-25T13:57:17.736Z,66.42
2017-07-25T13:59:45.440Z,67.55
2017-07-25T14:02:13.110Z,67.75
2017-07-25T14:04:40.805Z,68.28
2017-07-25T14:07:08.567Z,70.69
2017-07-25T14:09:36.323Z,70.97
2017-07-25T14:12:04.080Z,73.17
2017-07-25T14:14:31.703Z,73.96
2017-07-25T14:16:59.346Z,75.35
2017-07-25T14:19:26.989Z,76.35
2017-07-25T14:21:54.661Z,77.69
2017-07-25T14:24:22.298Z,77.31
2017-07-25T14:26:49.967Z,78.80
2017-07-25T14:29:17.752Z,79.85
2017-07-25T14:31:45.415Z,79.60
2017-07-25T14:34:13.048Z,80.78
2017-07-25T14:36:40.711Z,80.17
2017-07-25T14:39:08.433Z,77.20
2017-07-25T14:41:36.202Z,76.70
2017-07-25T14:44:03.844Z,74.80
2017-07-25T14:46:31.520Z,74.81
2017-07-25T14:48:59.167Z,74.18
2017-07-25T14:51:27.131Z,76.31
2017-07-25T14:53:54.828Z,73.45
2017-07-25T14:56:22.472Z,74.05
2017-07-25T14:58:51.279Z,69.60
2017-07-25T15:01:18.952Z,72.62
2017-07-25T15:03:46.600Z,71.64
2017-07-25T15:06:14.254Z,74.12
2017-07-25T15:08:42.062Z,72.29
2017-07-25T15:11:09.997Z,73.22
2017-07-25T15:13:37.633Z,71.26
2017-07-25T15:16:05.252Z,70.72
2017-07-25T15:18:32.911Z,68.80
2017-07-25T15:21:00.582Z,70.54
2017-07-25T15:23:28.272Z,70.32
2017-07-25T15:25:55.898Z,66.92
2017-07-25T15:28:23.564Z,67.07
2017-07-25T15:30:51.205Z,66.93
2017-07-25T15:33:19.012Z,69.96
2017-07-25T15:35:46.648Z,69.35
2017-07-25T15:38:14.330Z,68.89
2017-07-25T15:40:41.976Z,67.61
2017-07-25T15:43:09.643Z,66.91
2017-07-25T15:45:37.272Z,67.49
2017-07-25T15:48:04.930Z,68.76
2017-07-25T15:50:32.579Z,69.24
2017-07-25T15:53:00.471Z,68.57
2017-07-25T15:55:28.098Z,69.66
2017-07-25T15:57:55.761Z,70.13
2017-07-25T16:00:23.379Z,70.58
2017-07-25T16:02:51.205Z,72.44
2017-07-25T16:05:18.851Z,72.58
2017-07-25T16:07:46.527Z,73.18
2017-07-25T16:10:14.202Z,73.71
2017-07-25T16:12:41.868Z,74.60
2017-07-25T16:15:09.496Z,74.71
2017-07-25T16:17:37.196Z,75.06
2017-07-25T16:20:04.860Z,73.45
2017-07-25T16:22:32.554Z,72.96
2017-07-25T16:25:00.304Z,72.17
2017-07-25T16:27:27.983Z,73.52
2017-07-25T16:29:55.746Z,73.88
2017-07-25T16:32:23.389Z,73.92
2017-07-25T16:34:51.060Z,74.41
2017-07-25T16:37:18.723Z,74.13
2017-07-25T16:39:46.527Z,75.52
2017-07-25T16:42:14.167Z,74.98
2017-07-25T16:44:41.850Z,76.14
2017-07-25T16:47:09.496Z,76.55
2017-07-25T16:49:37.148Z,76.25
2017-07-25T16:52:04.779Z,76.89
2017-07-25T16:54:32.765Z,77.43
2017-07-25T16:57:00.670Z,76.69
2017-07-25T16:59:28.292Z,78.12
2017-07-25T17:01:55.959Z,78.22
2017-07-25T17:04:23.598Z,78.46
2017-07-25T17:06:51.523Z,77.93
2017-07-25T17:09:19.167Z,78.18
2017-07-25T17:11:46.918Z,79.61
2017-07-25T17:14:14.587Z,79.34
2017-07-25T17:16:42.245Z,79.57
2017-07-25T17:19:10.190Z,80.57
2017-07-25T17:21:37.827Z,80.67
2017-07-25T17:24:05.467Z,81.16
2017-07-25T17:26:33.130Z,81.56
2017-07-25T17:29:00.768Z,81.92
2017-07-25T17:31:28.443Z,82.33
2017-07-25T17:33:56.096Z,82.21
2017-07-25T17:36:25.287Z,82.89
2017-07-25T17:38:53.137Z,83.29
2017-07-25T17:41:20.768Z,83.75
2017-07-25T17:43:48.480Z,84.00
2017-07-25T17:46:16.144Z,83.83
2017-07-25T17:48:43.835Z,84.49
2017-07-25T17:51:11.501Z,84.74
2017-07-25T17:53:39.191Z,85.27
2017-07-25T17:56:06.962Z,84.95
2017-07-25T17:58:34.672Z,85.54
2017-07-25T18:01:02.316Z,85.14
2017-07-25T18:06:04.106Z,86.29
2017-07-25T18:08:32.160Z,85.69
2017-07-25T18:10:59.852Z,86.06
2017-07-25T18:13:27.551Z,86.11
2017-07-25T18:15:55.213Z,86.46
2017-07-25T18:18:22.877Z,86.03
2017-07-25T18:28:47.560Z,86.91
2017-07-25T18:31:15.366Z,86.60
2017-07-25T18:33:43.001Z,86.61
2017-07-25T18:36:10.710Z,86.67
2017-07-25T18:38:38.381Z,86.57
2017-07-25T18:41:06.049Z,86.46
2017-07-25T18:43:34.475Z,86.59
2017-07-25T18:46:02.204Z,86.03
2017-07-25T18:48:29.962Z,86.24
2017-07-25T18:50:57.641Z,86.24
2017-07-25T18:53:25.702Z,86.18
2017-07-25T18:55:53.368Z,86.28
2017-07-25T18:58:21.047Z,86.38
2017-07-25T19:00:48.748Z,86.45
2017-07-25T19:03:16.462Z,86.44
2017-07-25T19:05:44.093Z,86.11
2017-07-25T19:08:11.763Z,86.30
2017-07-25T19:10:39.412Z,85.79
2017-07-25T19:13:07.061Z,85.30
2017-07-25T19:15:34.775Z,84.93
2017-07-25T19:18:02.470Z,85.14
2017-07-25T19:20:30.210Z,85.40
2017-07-25T19:22:57.916Z,85.56
2017-07-25T19:25:25.566Z,85.86
2017-07-25T19:27:53.416Z,86.30
2017-07-25T19:30:21.115Z,86.46
2017-07-25T19:32:48.814Z,87.06
2017-07-25T19:35:16.479Z,87.54
2017-07-25T19:37:44.267Z,87.67
2017-07-25T19:40:11.913Z,87.82
2017-07-25T19:42:39.578Z,88.18
2017-07-25T19:45:07.203Z,88.17
2017-07-25T19:47:34.883Z,88.32
2017-07-25T19:50:02.567Z,88.18
2017-07-25T19:52:30.281Z,88.50
2017-07-25T19:54:58.000Z,88.89
2017-07-25T19:57:25.658Z,89.32
2017-07-25T19:59:53.327Z,89.46
2017-07-25T20:02:21.052Z,89.40
2017-07-25T20:04:48.723Z,89.81
2017-07-25T20:07:16.418Z,89.74
2017-07-25T20:09:44.254Z,89.82
2017-07-25T20:12:11.940Z,89.84
2017-07-25T20:14:39.597Z,89.68
2017-07-25T20:17:07.565Z,89.63
2017-07-25T20:19:35.160Z,89.44
2017-07-25T20:22:02.855Z,89.30
2017-07-25T20:24:30.520Z,89.27
2017-07-25T20:26:58.227Z,88.99
2017-07-25T20:29:25.868Z,88.21
2017-07-25T20:31:53.490Z,88.29
2017-07-25T20:34:21.195Z,88.01
2017-07-25T20:36:48.785Z,87.99
2017-07-25T20:39:16.532Z,88.05
2017-07-25T20:41:44.167Z,88.01
2017-07-25T20:44:11.862Z,88.15
2017-07-25T20:46:39.582Z,87.95
2017-07-25T20:49:07.277Z,88.07
2017-07-25T20:51:35.001Z,88.46
2017-07-25T20:54:02.671Z,88.09
2017-07-25T20:56:30.314Z,88.08
2017-07-25T20:58:58.003Z,88.23
2017-07-25T21:01:26.972Z,88.47
2017-07-25T21:03:54.687Z,88.66
2017-07-25T21:06:22.498Z,88.76
2017-07-25T21:08:50.216Z,88.80
2017-07-25T21:11:17.867Z,88.95
2017-07-25T21:13:45.553Z,89.18
2017-07-25T21:16:13.244Z,89.20
2017-07-25T21:18:40.880Z,89.43
2017-07-25T21:21:08.504Z,89.56
2017-07-25T21:23:36.153Z,89.59
2017-07-25T21:26:03.837Z,90.03
2017-07-25T21:28:31.522Z,90.33
2017-07-25T21:30:59.176Z,90.55
2017-07-25T21:33:26.868Z,90.87
2017-07-25T21:35:54.509Z,90.95
2017-07-25T21:38:22.195Z,91.11
2017-07-25T21:40:49.832Z,91.08
2017-07-25T21:43:17.510Z,91.20
2017-07-25T21:45:45.151Z,91.21
2017-07-25T21:48:12.834Z,91.15
2017-07-25T21:50:40.454Z,91.19
2017-07-25T21:53:08.523Z,91.14
2017-07-25T21:55:36.194Z,91.30
2017-07-25T21:58:03.847Z,91.24
2017-07-25T22:00:31.532Z,91.24
2017-07-25T22:03:10.744Z,91.34
2017-07-25T22:05:38.404Z,91.46
2017-07-25T22:08:06.082Z,91.51
2017-07-25T22:10:33.878Z,91.63
2017-07-25T22:13:01.584Z,91.66
2017-07-25T22:15:29.259Z,91.45
2017-07-25T22:17:56.950Z,91.57
2017-07-25T22:20:24.624Z,91.78
2017-07-25T22:22:52.358Z,91.83
2017-07-25T22:25:20.238Z,91.97
2017-07-25T22:27:47.907Z,92.00
2017-07-25T22:30:15.525Z,91.88
2017-07-25T22:32:43.153Z,91.78
2017-07-25T22:35:10.852Z,91.78
2017-07-25T22:37:38.471Z,91.72
2017-07-25T22:40:06.116Z,91.80
2017-07-25T22:42:33.735Z,91.67
2017-07-25T22:45:01.396Z,91.51
2017-07-25T22:47:29.030Z,91.28
2017-07-25T22:49:56.686Z,91.64
2017-07-25T22:52:24.420Z,91.57
2017-07-25T22:54:52.095Z,91.66
2017-07-25T22:57:19.729Z,91.83
2017-07-25T22:59:47.404Z,91.76
2017-07-25T23:02:15.050Z,91.87
2017-07-25T23:04:42.700Z,91.50
2017-07-25T23:07:10.317Z,91.50
2017-07-25T23:09:37.972Z,91.66
2017-07-25T23:12:05.618Z,91.57
2017-07-25T23:14:33.252Z,91.50
2017-07-25T23:17:00.943Z,91.57
2017-07-25T23:19:28.618Z,91.25
2017-07-25T23:21:56.708Z,91.28
2017-07-25T23:24:24.378Z,91.55
2017-07-25T23:26:52.130Z,91.23
2017-07-25T23:29:20.038Z,91.19
2017-07-25T23:31:47.711Z,91.19
2017-07-25T23:34:15.400Z,91.65
2017-07-25T23:36:43.031Z,91.53
2017-07-25T23:39:10.654Z,91.53
2017-07-25T23:41:38.336Z,91.39
2017-07-25T23:44:05.979Z,91.52
2017-07-25T23:46:33.643Z,91.57
2017-07-25T23:49:01.275Z,91.45
2017-07-25T23:51:29.065Z,91.46
2017-07-25T23:53:56.825Z,91.55
2017-07-25T23:56:24.488Z,91.72
2017-07-25T23:58:52.567Z,91.94
